Time;durP1;ratioP1;P1;durP2;ratioP2;P2;SDS_P1;SDS_P2;PMS_P1;PMS_P2;Temp;Humidity;BMP_temperature;BMP_pressure;BME280_temperature;BME280_humidity;BME280_pressure;Samples;Min_cycle;Max_cycle;Signal;HPM_P1;HPM_P2
2022/10/01 00:01:58;;;;;;;8.00;4.47;;;10.50;1.00;;;;;;5090788;28;20211;-47
2022/10/01 00:04:25;;;;;;;5.40;4.70;;;10.60;1.00;;;;;;5089418;28;20447;-47
2022/10/01 00:06:51;;;;;;;4.70;4.07;;;10.60;1.00;;;;;;5086997;28;20462;-47
2022/10/01 00:09:16;;;;;;;7.10;4.50;;;10.60;1.00;;;;;;5087723;28;20441;-47
2022/10/01 00:11:42;;;;;;;10.60;4.47;;;10.60;1.00;;;;;;5090154;28;21102;-47
2022/10/01 00:14:09;;;;;;;6.10;4.10;;;10.60;1.00;;;;;;5090962;28;20189;-47
2022/10/01 00:16:34;;;;;;;4.90;4.40;;;10.70;1.00;;;;;;5089525;28;20189;-48
2022/10/01 00:19:00;;;;;;;5.07;4.60;;;10.60;1.00;;;;;;5089407;28;22124;-47
2022/10/01 00:21:31;;;;;;;5.00;4.40;;;10.60;1.00;;;;;;5090891;28;20239;-47
2022/10/01 00:24:03;;;;;;;8.67;4.67;;;10.60;1.00;;;;;;5091364;28;20246;-47
2022/10/01 00:26:32;;;;;;;6.20;5.07;;;10.60;1.00;;;;;;5091891;28;20447;-47
2022/10/01 00:29:17;;;;;;;4.93;4.30;;;10.60;1.00;;;;;;5094281;28;20818;-47
2022/10/01 00:31:43;;;;;;;5.57;4.50;;;10.70;1.00;;;;;;5094369;28;20823;-48
2022/10/01 00:34:11;;;;;;;4.87;4.13;;;10.70;1.00;;;;;;5089725;28;20465;-47
2022/10/01 00:36:37;;;;;;;5.53;3.87;;;10.70;1.00;;;;;;5085181;28;20185;-47
2022/10/01 00:39:03;;;;;;;5.33;4.43;;;10.70;1.00;;;;;;5094006;28;20457;-47
2022/10/01 00:41:31;;;;;;;6.40;4.27;;;10.80;1.00;;;;;;5094179;28;20204;-47
2022/10/01 00:44:00;;;;;;;5.23;4.10;;;10.80;1.00;;;;;;5093677;28;20196;-47
2022/10/01 00:46:28;;;;;;;5.83;4.30;;;10.90;1.00;;;;;;5094110;28;20848;-47
2022/10/01 00:49:01;;;;;;;6.03;4.87;;;10.90;1.00;;;;;;5093254;28;20430;-48
2022/10/01 00:51:38;;;;;;;6.57;4.80;;;11.00;1.00;;;;;;5094153;28;20475;-47
2022/10/01 00:54:30;;;;;;;5.50;4.63;;;11.00;1.00;;;;;;5093408;28;20496;-48
2022/10/01 00:56:58;;;;;;;5.43;4.63;;;10.90;1.00;;;;;;5091913;28;20473;-47
2022/10/01 00:59:25;;;;;;;4.93;4.43;;;10.80;1.00;;;;;;5093186;28;20458;-47
2022/10/01 01:01:51;;;;;;;6.57;4.53;;;10.90;1.00;;;;;;5094402;28;20470;-47
2022/10/01 01:04:16;;;;;;;5.40;4.90;;;10.90;1.00;;;;;;5093192;28;20500;-47
2022/10/01 01:07:03;;;;;;;5.20;4.67;;;10.90;1.00;;;;;;5094062;28;20454;-47
2022/10/01 01:09:43;;;;;;;4.70;4.20;;;10.90;1.00;;;;;;5093109;28;20199;-47
2022/10/01 01:12:29;;;;;;;9.23;4.67;;;11.00;1.00;;;;;;5093731;28;20892;-47
2022/10/01 01:15:05;;;;;;;4.87;4.30;;;10.90;1.00;;;;;;5077480;28;20461;-47
2022/10/01 01:17:44;;;;;;;10.37;5.27;;;10.90;1.00;;;;;;5093381;28;20434;-47
2022/10/01 01:20:31;;;;;;;4.90;4.00;;;11.00;1.00;;;;;;5092826;28;20477;-48
2022/10/01 01:23:12;;;;;;;7.30;4.63;;;10.90;1.00;;;;;;5093973;28;20407;-48
2022/10/01 01:25:56;;;;;;;7.97;4.53;;;10.90;1.00;;;;;;5093739;28;20890;-48
2022/10/01 01:28:30;;;;;;;11.23;4.63;;;10.90;1.00;;;;;;5092694;28;20459;-47
2022/10/01 01:31:06;;;;;;;8.63;4.53;;;10.90;1.00;;;;;;5091422;28;20596;-47
2022/10/01 01:33:36;;;;;;;6.53;4.50;;;11.00;1.00;;;;;;5093305;28;20426;-47
2022/10/01 01:36:10;;;;;;;7.93;4.70;;;10.90;1.00;;;;;;5092235;28;20443;-47
2022/10/01 01:38:41;;;;;;;6.10;4.10;;;11.00;1.00;;;;;;5085919;28;20537;-47
2022/10/01 01:41:09;;;;;;;10.20;4.70;;;11.00;1.00;;;;;;5093355;28;20461;-47
2022/10/01 01:43:39;;;;;;;7.73;4.30;;;11.10;1.00;;;;;;5092500;28;20453;-47
2022/10/01 01:46:09;;;;;;;8.20;5.10;;;11.10;1.00;;;;;;5092831;28;20463;-47
2022/10/01 01:48:37;;;;;;;7.57;4.70;;;11.00;1.00;;;;;;5091937;28;20527;-47
2022/10/01 01:51:12;;;;;;;6.67;4.87;;;11.00;1.00;;;;;;5093395;28;20482;-46
2022/10/01 01:53:39;;;;;;;7.53;4.53;;;11.00;1.00;;;;;;5092698;28;20455;-47
2022/10/01 01:56:06;;;;;;;5.23;4.70;;;11.00;1.00;;;;;;5093313;28;20510;-48
2022/10/01 01:58:33;;;;;;;6.90;4.37;;;11.00;1.00;;;;;;5090583;28;20527;-47
2022/10/01 02:01:00;;;;;;;6.00;5.00;;;10.90;1.00;;;;;;5092646;28;20959;-47
2022/10/01 02:03:28;;;;;;;6.90;4.77;;;10.90;1.00;;;;;;5092186;28;20447;-47
2022/10/01 02:05:56;;;;;;;5.83;5.07;;;10.90;1.00;;;;;;5092481;28;20427;-47
2022/10/01 02:08:56;;;;;;;6.87;4.93;;;10.90;1.00;;;;;;5092392;28;20457;-47
2022/10/01 02:11:27;;;;;;;5.97;5.00;;;10.90;1.00;;;;;;5092314;28;20537;-47
2022/10/01 02:14:31;;;;;;;9.20;5.47;;;10.90;1.00;;;;;;5092992;28;20410;-48
2022/10/01 02:17:15;;;;;;;5.67;5.13;;;10.90;1.00;;;;;;5078201;28;20934;-47
2022/10/01 02:20:14;;;;;;;5.27;4.77;;;10.80;1.00;;;;;;5090660;28;20423;-47
2022/10/01 02:22:56;;;;;;;8.03;4.80;;;10.70;1.00;;;;;;5092866;28;20427;-48
2022/10/01 02:25:26;;;;;;;7.53;4.77;;;10.70;1.00;;;;;;5091490;28;20844;-47
2022/10/01 02:28:00;;;;;;;6.40;5.03;;;10.70;1.00;;;;;;5105271;28;21137;-48
2022/10/01 02:30:28;;;;;;;8.70;4.47;;;10.70;1.00;;;;;;5104627;28;20439;-47
2022/10/01 02:32:57;;;;;;;7.57;5.37;;;10.60;1.00;;;;;;5092490;28;20406;-47
2022/10/01 02:35:25;;;;;;;5.80;4.50;;;10.60;1.00;;;;;;5091478;28;20442;-47
2022/10/01 02:37:53;;;;;;;6.43;4.60;;;10.60;1.00;;;;;;5092188;28;20411;-48
2022/10/01 02:40:25;;;;;;;7.30;4.60;;;10.60;1.00;;;;;;5091385;28;20429;-47
2022/10/01 02:42:58;;;;;;;6.43;5.30;;;10.60;1.00;;;;;;5092205;28;20434;-48
2022/10/01 02:45:26;;;;;;;7.93;4.53;;;10.60;1.00;;;;;;5091271;28;20441;-47
2022/10/01 02:48:01;;;;;;;6.27;4.70;;;10.50;1.00;;;;;;5076622;28;20435;-48
2022/10/01 02:50:33;;;;;;;5.13;4.60;;;10.50;1.00;;;;;;5091382;28;20886;-47
2022/10/01 02:53:04;;;;;;;5.47;4.30;;;10.60;1.00;;;;;;5091955;28;20435;-48
2022/10/01 02:55:35;;;;;;;10.20;4.20;;;10.50;1.00;;;;;;5090929;28;20512;-47
2022/10/01 02:58:00;;;;;;;5.30;4.40;;;10.50;1.00;;;;;;5082931;28;20433;-48
2022/10/01 03:00:27;;;;;;;4.97;4.47;;;10.50;1.00;;;;;;5090869;28;20474;-47
2022/10/01 03:02:53;;;;;;;8.63;5.03;;;10.40;1.00;;;;;;5092004;28;20304;-47
2022/10/01 03:05:19;;;;;;;11.73;4.20;;;10.40;1.00;;;;;;5091164;28;20399;-47
2022/10/01 03:07:45;;;;;;;5.43;4.37;;;10.40;1.00;;;;;;5080840;28;20488;-48
2022/10/01 03:10:13;;;;;;;7.23;4.40;;;10.40;1.00;;;;;;5090775;28;20438;-44
2022/10/01 03:12:42;;;;;;;5.10;4.37;;;10.40;1.00;;;;;;5071176;28;20401;-45
2022/10/01 03:15:09;;;;;;;4.87;4.23;;;10.40;1.00;;;;;;5080248;28;20407;-45
2022/10/01 03:17:36;;;;;;;4.93;4.53;;;10.30;1.00;;;;;;5090790;28;20435;-44
2022/10/01 03:20:01;;;;;;;4.33;3.93;;;10.40;1.00;;;;;;5091833;28;20399;-45
2022/10/01 03:22:27;;;;;;;4.90;4.37;;;10.40;1.00;;;;;;5090987;28;20470;-44
2022/10/01 03:24:53;;;;;;;6.83;4.90;;;10.40;1.00;;;;;;5090523;28;20415;-45
2022/10/01 03:27:19;;;;;;;8.03;4.63;;;10.40;1.00;;;;;;5087908;28;20188;-46
2022/10/01 03:29:46;;;;;;;9.73;4.33;;;10.40;1.00;;;;;;5091520;28;20175;-45
2022/10/01 03:32:12;;;;;;;5.07;4.33;;;10.50;1.00;;;;;;5090707;28;20439;-44
2022/10/01 03:34:38;;;;;;;5.53;4.60;;;10.40;1.00;;;;;;5083818;28;20478;-45
2022/10/01 03:37:03;;;;;;;5.20;4.30;;;10.60;1.00;;;;;;5089536;28;20428;-45
2022/10/01 03:39:30;;;;;;;8.23;4.77;;;10.70;1.00;;;;;;5090436;28;20585;-45
2022/10/01 03:41:55;;;;;;;5.43;4.53;;;10.70;1.00;;;;;;5090589;28;20204;-45
2022/10/01 03:44:21;;;;;;;5.07;4.23;;;10.80;1.00;;;;;;5090325;28;21172;-45
2022/10/01 03:46:47;;;;;;;5.00;4.43;;;10.90;1.00;;;;;;5090961;28;20239;-45
2022/10/01 03:49:13;;;;;;;6.73;4.43;;;11.00;1.00;;;;;;5089924;28;20673;-45
2022/10/01 03:51:38;;;;;;;6.83;4.87;;;11.00;1.00;;;;;;5090848;28;20475;-44
2022/10/01 03:54:05;;;;;;;9.37;4.83;;;11.10;1.00;;;;;;5090323;28;20193;-44
2022/10/01 03:56:32;;;;;;;7.63;4.50;;;11.20;1.00;;;;;;5090138;28;20580;-44
2022/10/01 03:58:57;;;;;;;5.70;4.10;;;11.30;1.00;;;;;;5089818;28;20441;-45
2022/10/01 04:01:24;;;;;;;6.83;5.00;;;11.20;1.00;;;;;;5090651;28;20557;-45
2022/10/01 04:03:50;;;;;;;4.93;4.33;;;11.20;1.00;;;;;;5090297;28;20685;-45
2022/10/01 04:06:16;;;;;;;8.20;4.70;;;11.10;1.00;;;;;;5090268;28;20913;-45
2022/10/01 04:08:42;;;;;;;6.17;5.27;;;11.00;1.00;;;;;;5090226;28;20439;-45
2022/10/01 04:11:08;;;;;;;6.07;4.83;;;11.00;32.20;;;;;;5090808;28;20186;-45
2022/10/01 04:13:34;;;;;;;8.43;4.77;;;10.90;99.90;;;;;;5089576;28;20185;-44
2022/10/01 04:16:01;;;;;;;10.43;6.20;;;10.80;99.90;;;;;;5090562;28;20203;-44
2022/10/01 04:18:26;;;;;;;6.07;5.47;;;10.80;99.90;;;;;;5090221;28;20186;-44
2022/10/01 04:20:52;;;;;;;9.00;5.43;;;10.70;1.00;;;;;;5091138;28;21004;-45
2022/10/01 04:23:17;;;;;;;8.63;5.23;;;10.70;1.00;;;;;;5090655;28;20620;-44
2022/10/01 04:25:43;;;;;;;7.37;5.47;;;10.60;1.00;;;;;;5089533;28;20809;-44
2022/10/01 04:28:12;;;;;;;7.93;6.07;;;10.60;99.90;;;;;;5090183;28;20595;-45
2022/10/01 04:30:41;;;;;;;11.33;6.30;;;10.60;99.90;;;;;;5089898;28;20197;-45
2022/10/01 04:33:13;;;;;;;7.60;5.80;;;10.60;1.00;;;;;;5090807;28;20423;-45
2022/10/01 04:35:39;;;;;;;6.50;5.70;;;10.50;1.00;;;;;;5089974;28;20942;-45
2022/10/01 04:38:10;;;;;;;7.00;5.70;;;10.50;1.00;;;;;;5090626;28;20392;-44
2022/10/01 04:40:36;;;;;;;5.90;5.40;;;10.50;21.30;;;;;;5089628;28;20212;-45
2022/10/01 04:43:03;;;;;;;7.37;5.20;;;10.40;50.80;;;;;;5072248;28;20403;-45
2022/10/01 04:45:29;;;;;;;6.90;6.10;;;10.40;99.90;;;;;;5089061;28;20216;-45
2022/10/01 04:47:55;;;;;;;7.43;5.50;;;10.40;99.90;;;;;;5090322;28;20419;-45
2022/10/01 04:50:24;;;;;;;8.10;5.10;;;10.40;1.00;;;;;;5089552;28;20499;-45
2022/10/01 04:52:50;;;;;;;7.13;5.07;;;10.30;31.10;;;;;;5090648;28;20237;-45
2022/10/01 04:55:17;;;;;;;5.93;5.30;;;10.30;99.90;;;;;;5089884;28;20442;-45
2022/10/01 04:57:43;;;;;;;7.60;5.90;;;10.30;1.00;;;;;;5089577;28;20442;-44
2022/10/01 05:00:16;;;;;;;5.83;5.23;;;10.20;1.00;;;;;;5090744;28;20391;-45
2022/10/01 05:02:45;;;;;;;6.27;5.03;;;10.20;99.90;;;;;;5089689;28;20492;-45
2022/10/01 05:05:11;;;;;;;8.13;5.60;;;10.20;1.00;;;;;;5090467;28;20418;-45
2022/10/01 05:07:38;;;;;;;10.17;6.30;;;10.10;62.00;;;;;;5089176;28;21182;-45
2022/10/01 05:10:05;;;;;;;9.83;5.80;;;10.10;99.90;;;;;;5091960;28;20172;-45
2022/10/01 05:12:31;;;;;;;9.30;6.30;;;10.10;1.00;;;;;;5093274;28;20500;-44
2022/10/01 05:14:56;;;;;;;8.77;6.00;;;10.10;99.90;;;;;;5091098;28;20833;-44
2022/10/01 05:17:22;;;;;;;8.20;6.00;;;10.00;99.90;;;;;;5092715;28;20702;-45
2022/10/01 05:19:49;;;;;;;9.23;5.90;;;10.00;99.90;;;;;;5093139;28;20274;-46
2022/10/01 05:22:15;;;;;;;7.37;6.13;;;10.00;1.00;;;;;;5093425;28;20855;-45
2022/10/01 05:24:42;;;;;;;7.23;6.00;;;10.00;99.90;;;;;;5093105;28;20407;-44
2022/10/01 05:27:10;;;;;;;8.23;5.03;;;10.00;1.00;;;;;;5094216;28;20914;-45
2022/10/01 05:29:37;;;;;;;8.83;5.70;;;10.00;1.00;;;;;;5092920;28;20774;-45
2022/10/01 05:32:03;;;;;;;8.73;6.70;;;10.00;1.00;;;;;;5092521;28;20464;-45
2022/10/01 05:34:28;;;;;;;8.10;6.83;;;10.00;99.90;;;;;;5092449;28;20479;-45
2022/10/01 05:36:54;;;;;;;6.40;5.80;;;10.00;99.90;;;;;;5093697;28;20837;-45
2022/10/01 05:39:20;;;;;;;8.57;6.23;;;10.00;1.00;;;;;;5093112;28;20271;-45
2022/10/01 05:41:45;;;;;;;7.17;5.90;;;10.00;1.00;;;;;;5074699;28;20278;-44
2022/10/01 05:44:11;;;;;;;7.07;6.20;;;9.90;99.90;;;;;;5098846;28;20215;-47
2022/10/01 05:46:36;;;;;;;7.10;5.70;;;9.90;1.00;;;;;;5093179;28;20197;-47
2022/10/01 05:49:02;;;;;;;7.87;5.90;;;9.90;1.00;;;;;;5092378;28;20193;-47
2022/10/01 05:51:29;;;;;;;6.40;5.60;;;10.00;99.90;;;;;;5092413;28;20243;-46
2022/10/01 05:53:57;;;;;;;6.53;5.90;;;10.00;99.90;;;;;;5091459;28;20254;-47
2022/10/01 05:56:23;;;;;;;8.53;6.00;;;9.90;99.90;;;;;;5092217;28;20527;-47
2022/10/01 05:58:49;;;;;;;7.70;6.10;;;9.90;1.00;;;;;;5092051;28;20495;-47
2022/10/01 06:01:14;;;;;;;10.43;6.30;;;10.00;1.00;;;;;;5091890;28;20470;-47
2022/10/01 06:03:41;;;;;;;10.00;6.57;;;9.90;1.00;;;;;;5092838;28;20259;-47
2022/10/01 06:06:07;;;;;;;8.07;6.03;;;10.00;1.00;;;;;;5092652;28;20193;-47
2022/10/01 06:08:34;;;;;;;6.77;6.07;;;10.00;1.00;;;;;;5092231;28;20916;-47
2022/10/01 06:11:01;;;;;;;8.63;6.60;;;9.90;1.00;;;;;;5092433;28;20201;-47
2022/10/01 06:13:28;;;;;;;9.93;6.60;;;9.90;1.00;;;;;;5092375;28;20896;-47
2022/10/01 06:15:53;;;;;;;6.67;5.60;;;9.90;57.40;;;;;;5091936;28;20454;-47
2022/10/01 06:18:19;;;;;;;7.37;5.93;;;10.00;99.90;;;;;;5093026;28;20419;-47
2022/10/01 06:20:44;;;;;;;10.67;6.23;;;9.90;99.90;;;;;;5092133;28;20616;-46
2022/10/01 06:23:11;;;;;;;9.53;6.50;;;9.90;99.90;;;;;;5091769;28;20201;-47
2022/10/01 06:25:39;;;;;;;7.23;6.17;;;9.90;99.90;;;;;;5091523;28;20202;-47
2022/10/01 06:28:06;;;;;;;8.00;6.17;;;10.00;99.90;;;;;;5092387;28;20422;-46
2022/10/01 06:30:33;;;;;;;8.53;6.20;;;10.00;99.90;;;;;;5091684;28;20427;-47
2022/10/01 06:33:07;;;;;;;6.37;5.40;;;10.00;99.90;;;;;;5092125;28;20510;-49
2022/10/01 06:35:35;;;;;;;8.20;6.10;;;10.00;99.90;;;;;;5075927;28;20439;-47
2022/10/01 06:38:01;;;;;;;10.80;6.00;;;10.10;99.90;;;;;;5092675;28;20476;-47
2022/10/01 06:40:28;;;;;;;8.03;6.63;;;10.00;99.90;;;;;;5091201;28;20403;-47
2022/10/01 06:42:57;;;;;;;6.07;5.47;;;10.00;99.90;;;;;;5091782;28;20434;-47
2022/10/01 06:45:24;;;;;;;7.70;5.70;;;10.00;99.90;;;;;;5092204;28;20916;-47
2022/10/01 06:47:58;;;;;;;7.03;5.97;;;10.10;99.90;;;;;;5091985;28;20946;-47
2022/10/01 06:50:24;;;;;;;7.33;5.77;;;10.00;99.90;;;;;;5091101;28;21323;-47
2022/10/01 06:52:51;;;;;;;10.40;6.00;;;10.10;99.90;;;;;;5090994;28;20475;-47
2022/10/01 06:55:26;;;;;;;9.13;5.73;;;10.10;99.90;;;;;;5090956;28;20414;-47
2022/10/01 06:57:57;;;;;;;6.60;5.83;;;10.10;99.90;;;;;;5092035;28;20793;-47
2022/10/01 07:00:23;;;;;;;6.70;5.50;;;10.10;99.90;;;;;;5090747;28;21009;-47
2022/10/01 07:02:49;;;;;;;5.37;4.87;;;10.10;99.90;;;;;;5088829;28;20439;-47
2022/10/01 07:05:15;;;;;;;7.23;5.30;;;10.20;99.90;;;;;;5091358;28;20843;-47
2022/10/01 07:07:42;;;;;;;7.50;5.60;;;10.10;99.90;;;;;;5091462;28;20189;-47
2022/10/01 07:10:09;;;;;;;7.50;5.57;;;10.10;99.90;;;;;;5099361;28;20848;-47
2022/10/01 07:12:35;;;;;;;6.27;5.70;;;10.10;99.90;;;;;;5090648;28;20466;-47
2022/10/01 07:15:02;;;;;;;6.57;5.20;;;10.10;99.90;;;;;;5091603;28;20403;-47
2022/10/01 07:17:27;;;;;;;5.67;5.07;;;10.10;99.90;;;;;;5090382;28;20431;-47
2022/10/01 07:19:53;;;;;;;6.03;5.30;;;10.10;99.90;;;;;;5091178;28;20418;-47
2022/10/01 07:22:19;;;;;;;5.93;5.40;;;10.10;99.90;;;;;;5090336;28;20277;-46
2022/10/01 07:24:45;;;;;;;6.63;5.47;;;10.10;99.90;;;;;;5091324;28;20165;-47
2022/10/01 07:27:12;;;;;;;6.77;5.30;;;10.10;99.90;;;;;;5089905;28;20193;-47
2022/10/01 07:29:37;;;;;;;9.80;6.57;;;10.10;99.90;;;;;;5091511;28;20450;-47
2022/10/01 07:32:07;;;;;;;7.40;5.93;;;10.20;99.90;;;;;;5090289;28;21231;-47
2022/10/01 07:34:34;;;;;;;8.30;6.10;;;10.20;99.90;;;;;;5091022;28;20580;-45
2022/10/01 07:37:00;;;;;;;8.17;6.30;;;10.20;99.90;;;;;;5089682;28;20533;-48
2022/10/01 07:39:26;;;;;;;7.53;5.73;;;10.20;99.90;;;;;;5091118;28;20924;-47
2022/10/01 07:41:51;;;;;;;6.70;5.67;;;10.20;99.90;;;;;;5090284;28;20502;-47
2022/10/01 07:44:18;;;;;;;8.40;5.87;;;10.20;99.90;;;;;;5092816;28;20177;-48
2022/10/01 07:46:45;;;;;;;6.10;5.30;;;10.20;99.90;;;;;;5092649;28;20258;-47
2022/10/01 07:49:10;;;;;;;8.17;6.10;;;10.20;99.90;;;;;;5090851;28;20888;-48
2022/10/01 07:51:36;;;;;;;6.77;5.77;;;10.30;99.90;;;;;;5090040;28;20489;-48
2022/10/01 07:54:03;;;;;;;7.90;5.77;;;10.30;99.90;;;;;;5090750;28;20627;-48
2022/10/01 07:56:28;;;;;;;7.00;5.43;;;10.30;99.90;;;;;;5090016;28;20204;-48
2022/10/01 07:58:55;;;;;;;9.23;6.50;;;10.30;99.90;;;;;;5090170;28;20815;-50
2022/10/01 08:01:20;;;;;;;7.00;5.80;;;10.30;99.90;;;;;;5089797;28;20258;-48
2022/10/01 08:03:51;;;;;;;9.70;5.87;;;10.30;99.90;;;;;;5090842;28;20411;-48
2022/10/01 08:06:18;;;;;;;6.03;5.53;;;10.40;99.90;;;;;;5089795;28;20189;-48
2022/10/01 08:08:44;;;;;;;7.40;5.40;;;10.40;99.90;;;;;;5089683;28;20530;-48
2022/10/01 08:11:12;;;;;;;7.90;4.90;;;10.40;99.90;;;;;;5089849;28;20541;-48
2022/10/01 08:13:38;;;;;;;6.47;5.23;;;10.40;1.00;;;;;;5090356;28;20189;-48
2022/10/01 08:16:05;;;;;;;7.13;5.43;;;10.40;99.90;;;;;;5089734;28;20519;-48
2022/10/01 08:18:31;;;;;;;5.13;4.63;;;10.40;1.00;;;;;;5090608;28;20169;-48
2022/10/01 08:21:00;;;;;;;5.17;4.37;;;10.40;1.00;;;;;;5089351;28;20470;-48
2022/10/01 08:23:28;;;;;;;7.27;4.30;;;10.40;1.00;;;;;;5090742;28;20814;-47
2022/10/01 08:26:06;;;;;;;6.10;4.67;;;10.50;1.00;;;;;;5089910;28;20446;-49
2022/10/01 08:28:33;;;;;;;5.07;4.20;;;10.50;1.00;;;;;;5090210;28;20419;-48
2022/10/01 08:31:05;;;;;;;4.33;3.80;;;10.50;1.00;;;;;;5089587;28;20461;-48
2022/10/01 08:33:31;;;;;;;4.30;3.40;;;10.50;1.00;;;;;;5090598;28;20418;-48
2022/10/01 08:36:01;;;;;;;3.70;3.40;;;10.50;1.00;;;;;;5089524;28;20450;-47
2022/10/01 08:38:27;;;;;;;9.10;3.60;;;10.60;1.00;;;;;;5090478;28;20647;-48
2022/10/01 08:40:52;;;;;;;5.63;4.10;;;10.50;1.00;;;;;;5089668;28;20478;-48
2022/10/01 08:43:27;;;;;;;3.97;3.53;;;10.60;1.00;;;;;;5090145;28;20425;-48
2022/10/01 08:45:57;;;;;;;4.13;3.50;;;10.60;1.00;;;;;;5092581;28;20196;-48
2022/10/01 08:48:22;;;;;;;4.70;3.30;;;10.60;1.00;;;;;;5094791;28;20408;-50
2022/10/01 08:50:51;;;;;;;3.60;3.27;;;10.70;1.00;;;;;;5091628;28;20475;-46
2022/10/01 08:53:44;;;;;;;4.60;3.70;;;10.70;1.00;;;;;;5094482;28;20620;-48
2022/10/01 08:56:22;;;;;;;8.50;3.20;;;10.70;1.00;;;;;;5092774;28;20858;-48
2022/10/01 08:59:01;;;;;;;6.00;3.83;;;10.70;1.00;;;;;;5094190;28;20418;-48
2022/10/01 09:01:28;;;;;;;4.33;3.87;;;10.70;1.00;;;;;;5092911;28;20481;-48
2022/10/01 09:03:54;;;;;;;4.13;3.77;;;10.80;1.00;;;;;;5094073;28;20768;-48
2022/10/01 09:06:24;;;;;;;3.77;3.40;;;10.80;1.00;;;;;;5093330;28;20939;-48
2022/10/01 09:09:27;;;;;;;3.67;3.43;;;10.90;1.00;;;;;;5093895;28;20437;-48
2022/10/01 09:11:58;;;;;;;4.30;3.90;;;10.90;1.00;;;;;;5092898;28;20448;-48
2022/10/01 09:14:49;;;;;;;4.33;3.93;;;10.90;1.00;;;;;;5093731;28;20540;-48
2022/10/01 09:17:29;;;;;;;3.80;3.50;;;10.90;1.00;;;;;;5094287;28;20418;-48
2022/10/01 09:20:28;;;;;;;4.87;4.00;;;10.90;1.00;;;;;;5092938;28;20425;-48
2022/10/01 09:23:16;;;;;;;4.77;4.13;;;10.90;1.00;;;;;;5093894;28;20407;-48
2022/10/01 09:25:44;;;;;;;7.23;4.30;;;10.90;1.00;;;;;;5091890;28;20447;-48
2022/10/01 09:28:41;;;;;;;4.87;4.37;;;11.00;1.00;;;;;;5091360;28;20462;-48
2022/10/01 09:31:23;;;;;;;4.93;4.43;;;11.00;1.00;;;;;;5071432;28;20466;-48
2022/10/01 09:34:02;;;;;;;6.43;5.10;;;11.10;1.00;;;;;;5091781;28;20431;-48
2022/10/01 09:37:13;;;;;;;5.73;5.23;;;11.10;1.00;;;;;;5082127;28;20418;-48
2022/10/01 09:39:47;;;;;;;7.63;5.80;;;11.10;1.00;;;;;;5074776;28;20397;-48
2022/10/01 09:42:13;;;;;;;6.57;5.97;;;11.20;1.00;;;;;;5092490;28;20442;-48
2022/10/01 09:44:39;;;;;;;11.30;6.30;;;11.20;1.00;;;;;;5093106;28;20450;-48
2022/10/01 09:47:17;;;;;;;11.03;7.10;;;11.30;1.00;;;;;;5092654;28;20307;-53
2022/10/01 09:49:43;;;;;;;8.60;6.60;;;11.30;1.00;;;;;;5092302;28;20640;-48
2022/10/01 09:52:34;;;;;;;9.70;6.90;;;11.30;1.00;;;;;;5085383;28;20497;-48
2022/10/01 09:55:11;;;;;;;7.17;6.47;;;11.40;1.00;;;;;;5092130;28;20811;-47
2022/10/01 09:57:42;;;;;;;8.97;7.00;;;11.40;1.00;;;;;;5090236;28;20488;-47
2022/10/01 10:00:19;;;;;;;8.33;7.47;;;11.50;1.00;;;;;;5071994;28;20439;-48
2022/10/01 10:02:47;;;;;;;12.40;7.60;;;11.70;1.00;;;;;;5087608;28;20430;-47
2022/10/01 10:05:28;;;;;;;8.23;7.47;;;11.80;1.00;;;;;;5092349;28;20387;-47
2022/10/01 10:07:58;;;;;;;8.80;7.83;;;11.80;1.00;;;;;;5079123;28;20423;-48
2022/10/01 10:10:26;;;;;;;9.77;7.73;;;11.90;1.00;;;;;;5091220;28;20467;-48
2022/10/01 10:13:03;;;;;;;9.03;7.80;;;12.00;1.00;;;;;;5091039;28;20489;-48
2022/10/01 10:15:31;;;;;;;11.23;7.70;;;12.20;1.00;;;;;;5086824;28;20447;-48
2022/10/01 10:18:05;;;;;;;7.50;6.80;;;12.40;1.00;;;;;;5072536;28;20400;-48
2022/10/01 10:20:37;;;;;;;9.20;8.23;;;12.50;1.00;;;;;;5083799;28;20417;-48
2022/10/01 10:23:28;;;;;;;9.30;7.00;;;12.60;99.90;;;;;;5092592;28;20405;-48
2022/10/01 10:26:04;;;;;;;9.00;7.57;;;12.70;99.90;;;;;;5091829;28;20811;-48
2022/10/01 10:28:44;;;;;;;9.43;7.80;;;12.90;99.90;;;;;;5091768;28;20426;-48
2022/10/01 10:31:25;;;;;;;9.47;7.57;;;13.00;99.90;;;;;;5073904;28;20415;-48
2022/10/01 10:34:03;;;;;;;10.00;7.00;;;13.10;99.90;;;;;;5091169;28;20427;-48
2022/10/01 10:36:32;;;;;;;9.00;7.00;;;13.20;99.90;;;;;;5089860;28;20447;-48
2022/10/01 10:38:59;;;;;;;8.00;7.20;;;13.20;99.90;;;;;;5092610;28;20407;-48
2022/10/01 10:41:26;;;;;;;9.07;7.10;;;13.20;99.90;;;;;;5092476;28;20445;-48
2022/10/01 10:44:05;;;;;;;8.47;7.17;;;13.20;99.90;;;;;;5090741;28;20453;-48
2022/10/01 10:46:37;;;;;;;8.30;7.07;;;13.30;99.90;;;;;;5068520;28;20956;-48
2022/10/01 10:49:08;;;;;;;13.37;7.77;;;13.40;99.90;;;;;;5078816;28;20534;-49
2022/10/01 10:51:44;;;;;;;10.17;8.07;;;13.60;97.40;;;;;;5074044;28;20489;-48
2022/10/01 10:54:37;;;;;;;9.27;8.03;;;13.80;1.00;;;;;;5087735;28;20983;-48
2022/10/01 10:57:30;;;;;;;11.30;7.73;;;14.30;12.30;;;;;;5090578;28;20484;-48
2022/10/01 11:00:00;;;;;;;10.40;6.80;;;14.90;1.00;;;;;;5068523;28;20930;-48
2022/10/01 11:02:29;;;;;;;7.90;6.20;;;15.20;99.90;;;;;;5052671;28;20555;-49
2022/10/01 11:04:57;;;;;;;6.50;5.90;;;16.10;1.00;;;;;;5078802;28;20855;-48
2022/10/01 11:07:25;;;;;;;6.57;4.47;;;17.00;99.90;;;;;;5077853;28;20467;-48
2022/10/01 11:10:48;;;;;;;5.40;4.50;;;17.60;1.00;;;;;;5070498;28;20932;-48
2022/10/01 11:13:58;;;;;;;5.20;4.70;;;18.00;99.90;;;;;;5007136;28;20449;-49
2022/10/01 11:16:32;;;;;;;7.00;5.10;;;18.10;99.90;;;;;;4907077;29;21533;-48
2022/10/01 11:19:32;;;;;;;6.70;4.77;;;17.90;1.00;;;;;;5050632;28;20431;-49
2022/10/01 11:22:28;;;;;;;7.23;3.90;;;18.60;1.00;;;;;;5096506;28;20458;-48
2022/10/01 11:25:03;;;;;;;7.50;3.93;;;19.30;99.90;;;;;;5091677;28;21181;-46
2022/10/01 11:27:41;;;;;;;8.53;3.90;;;20.40;1.00;;;;;;5091407;28;20507;-46
2022/10/01 11:30:17;;;;;;;9.13;3.90;;;20.00;1.00;;;;;;5091187;28;20901;-46
2022/10/01 11:32:51;;;;;;;6.63;4.47;;;19.30;1.00;;;;;;5090815;28;20440;-45
2022/10/01 11:35:25;;;;;;;8.23;3.80;;;19.50;1.00;;;;;;5091260;28;20912;-46
2022/10/01 11:37:51;;;;;;;8.10;3.40;;;19.80;1.00;;;;;;5090635;28;20572;-45
2022/10/01 11:40:26;;;;;;;9.77;3.33;;;19.60;1.00;;;;;;5090329;28;20979;-46
2022/10/01 11:43:02;;;;;;;8.63;3.20;;;18.90;1.00;;;;;;5087546;28;20203;-46
2022/10/01 11:45:33;;;;;;;8.83;3.70;;;18.40;1.00;;;;;;5088306;28;20478;-46
2022/10/01 11:48:28;;;;;;;10.37;4.33;;;18.00;1.00;;;;;;5080505;28;20440;-46
2022/10/01 11:51:00;;;;;;;8.83;3.57;;;17.40;1.00;;;;;;5083391;28;20494;-45
2022/10/01 11:53:32;;;;;;;6.90;3.10;;;17.00;1.00;;;;;;5087746;28;21121;-46
2022/10/01 11:59:06;;;;;;;10.80;3.60;;;16.80;1.00;;;;;;5070403;28;20391;-45
2022/10/01 12:01:45;;;;;;;10.80;3.30;;;17.00;1.00;;;;;;5070664;28;20458;-46
2022/10/01 12:04:27;;;;;;;9.97;2.83;;;17.40;1.00;;;;;;5070560;28;20424;-46
2022/10/01 12:07:10;;;;;;;14.10;3.10;;;18.70;1.00;;;;;;5079787;28;20524;-46
2022/10/01 12:10:20;;;;;;;6.77;2.50;;;18.90;1.00;;;;;;5090601;28;20453;-45
2022/10/01 12:13:02;;;;;;;9.20;2.60;;;19.90;1.00;;;;;;5083761;28;20438;-45
2022/10/01 12:15:40;;;;;;;6.53;2.40;;;20.00;1.00;;;;;;5090935;28;20463;-46
2022/10/01 12:18:10;;;;;;;4.27;1.93;;;20.70;1.00;;;;;;5090813;28;20391;-45
2022/10/01 12:20:50;;;;;;;5.40;1.87;;;21.10;1.00;;;;;;5090954;28;20486;-45
2022/10/01 12:23:27;;;;;;;10.77;2.10;;;20.60;1.00;;;;;;5090823;28;20396;-46
2022/10/01 12:26:06;;;;;;;5.53;1.93;;;20.90;1.00;;;;;;5086057;28;20567;-46
2022/10/01 12:28:55;;;;;;;9.93;2.60;;;21.50;1.00;;;;;;5089760;28;20446;-46
2022/10/01 12:31:51;;;;;;;4.60;1.70;;;21.70;1.00;;;;;;5089598;28;20475;-46
2022/10/01 12:34:22;;;;;;;9.63;2.30;;;20.80;1.00;;;;;;5081772;28;20426;-46
2022/10/01 12:36:54;;;;;;;3.43;1.50;;;19.70;1.00;;;;;;5089292;28;20427;-46
2022/10/01 12:39:28;;;;;;;7.50;1.90;;;18.70;1.00;;;;;;5080179;28;20438;-46
2022/10/01 12:42:24;;;;;;;5.50;2.17;;;18.00;1.00;;;;;;5086857;28;20467;-45
2022/10/01 12:45:00;;;;;;;4.87;1.80;;;17.50;1.00;;;;;;5067801;28;20438;-45
2022/10/01 12:47:38;;;;;;;3.73;1.43;;;17.10;1.00;;;;;;5088903;28;20439;-45
2022/10/01 12:50:21;;;;;;;8.50;1.73;;;16.80;1.00;;;;;;5090193;28;20415;-46
2022/10/01 12:53:16;;;;;;;4.07;1.90;;;16.60;1.00;;;;;;5088855;28;20926;-45
2022/10/01 12:55:59;;;;;;;10.00;2.00;;;16.50;1.00;;;;;;5066011;28;20488;-45
2022/10/01 12:58:48;;;;;;;9.07;1.90;;;16.40;1.00;;;;;;5082290;28;20450;-45
2022/10/01 13:01:40;;;;;;;4.20;1.70;;;16.30;1.00;;;;;;5090100;28;20459;-45
2022/10/01 13:04:30;;;;;;;6.73;1.73;;;16.20;1.00;;;;;;5090290;28;20399;-45
2022/10/01 13:07:26;;;;;;;8.57;2.20;;;16.10;1.00;;;;;;5090148;28;20446;-45
2022/10/01 13:10:12;;;;;;;6.53;1.97;;;15.90;1.00;;;;;;5090529;28;20422;-45
2022/10/01 13:12:58;;;;;;;8.57;2.27;;;15.70;1.00;;;;;;5089954;28;20821;-45
2022/10/01 13:15:39;;;;;;;6.60;1.93;;;15.50;1.00;;;;;;5090189;28;20419;-45
2022/10/01 13:18:40;;;;;;;8.37;2.00;;;15.30;1.00;;;;;;5090221;28;20518;-45
2022/10/01 13:21:45;;;;;;;3.63;1.23;;;15.20;86.60;;;;;;5073665;28;20486;-45
2022/10/01 13:24:19;;;;;;;1.93;0.90;;;14.50;30.90;;;;;;5087939;28;20446;-45